Time;durP1;ratioP1;P1;durP2;ratioP2;P2;SDS_P1;SDS_P2;PMS_P1;PMS_P2;Temp;Humidity;BMP_temperature;BMP_pressure;BME280_temperature;BME280_humidity;BME280_pressure;Samples;Min_cycle;Max_cycle;Signal;HPM_P1;HPM_P2
2023/08/14 00:01:15;;;;;;;10.35;6.15;;;19.90;99.90;;;;;;5054585;28;20032;-68
2023/08/14 00:03:41;;;;;;;8.10;5.88;;;19.90;99.90;;;;;;5054930;28;20030;-68
2023/08/14 00:06:06;;;;;;;8.48;5.93;;;19.90;99.90;;;;;;5054281;28;20021;-68
2023/08/14 00:08:32;;;;;;;7.82;5.90;;;19.90;99.90;;;;;;5054585;28;20025;-68
2023/08/14 00:10:57;;;;;;;16.75;6.15;;;19.90;99.90;;;;;;5054508;28;20075;-68
2023/08/14 00:13:23;;;;;;;6.60;5.53;;;19.90;99.90;;;;;;5054491;28;20025;-68
2023/08/14 00:15:50;;;;;;;8.68;5.53;;;19.90;99.90;;;;;;5054495;28;20024;-68
2023/08/14 00:18:15;;;;;;;11.93;6.82;;;19.90;99.90;;;;;;5054553;28;20017;-68
2023/08/14 00:20:41;;;;;;;8.20;6.47;;;19.90;99.90;;;;;;5054451;28;20029;-68
2023/08/14 00:23:07;;;;;;;31.25;7.03;;;20.00;99.90;;;;;;5054268;28;20099;-68
2023/08/14 00:25:33;;;;;;;9.32;6.35;;;20.00;99.90;;;;;;5054217;28;20465;-68
2023/08/14 00:27:58;;;;;;;10.18;5.93;;;20.00;99.90;;;;;;5054127;28;20032;-68
2023/08/14 00:30:24;;;;;;;8.40;6.47;;;20.00;99.90;;;;;;5054360;28;20021;-68
2023/08/14 00:32:50;;;;;;;8.45;6.50;;;20.00;99.90;;;;;;5054058;28;20031;-68
2023/08/14 00:35:15;;;;;;;9.85;7.18;;;20.00;99.90;;;;;;5053743;28;20024;-68
2023/08/14 00:37:48;;;;;;;14.85;6.63;;;20.00;99.90;;;;;;5053978;28;20067;-68
2023/08/14 00:40:15;;;;;;;10.02;7.00;;;20.00;99.90;;;;;;5053936;28;20032;-68
2023/08/14 00:42:45;;;;;;;10.23;7.47;;;20.00;99.90;;;;;;5053594;28;20029;-68
2023/08/14 00:45:10;;;;;;;10.83;6.93;;;20.00;99.90;;;;;;5053899;28;20029;-68
2023/08/14 00:47:37;;;;;;;16.33;7.82;;;20.10;99.90;;;;;;5053899;28;20031;-68
2023/08/14 00:50:04;;;;;;;41.53;7.53;;;20.00;99.90;;;;;;5054356;28;20049;-68
2023/08/14 00:52:32;;;;;;;13.88;6.80;;;20.00;99.90;;;;;;5052954;28;20045;-68
2023/08/14 00:55:00;;;;;;;8.00;6.13;;;20.00;99.90;;;;;;5053867;28;20021;-68
2023/08/14 00:57:27;;;;;;;6.35;5.35;;;20.10;99.90;;;;;;5054264;28;20025;-68
2023/08/14 00:59:53;;;;;;;11.00;5.95;;;20.10;99.90;;;;;;5054011;28;20166;-69
2023/08/14 01:02:19;;;;;;;10.95;6.00;;;20.00;99.90;;;;;;5053620;28;20029;-68
2023/08/14 01:04:44;;;;;;;7.68;5.88;;;20.00;99.90;;;;;;5053565;28;20035;-68
2023/08/14 01:07:10;;;;;;;11.70;6.82;;;20.10;99.90;;;;;;5053588;28;20020;-68
2023/08/14 01:09:36;;;;;;;10.60;6.00;;;20.00;99.90;;;;;;5053866;28;20017;-68
2023/08/14 01:12:10;;;;;;;9.40;6.63;;;20.00;99.90;;;;;;5053303;28;20448;-68
2023/08/14 01:14:38;;;;;;;8.23;6.93;;;20.00;99.90;;;;;;5053242;28;20024;-67
2023/08/14 01:17:09;;;;;;;9.45;7.10;;;19.90;99.90;;;;;;5053497;28;20028;-67
2023/08/14 01:19:42;;;;;;;12.05;6.90;;;19.90;99.90;;;;;;5054259;28;20036;-67
2023/08/14 01:22:15;;;;;;;10.73;7.43;;;20.00;99.90;;;;;;5053637;28;20393;-68
2023/08/14 01:25:32;;;;;;;10.00;6.85;;;19.90;99.90;;;;;;5053462;28;20081;-68
2023/08/14 01:27:59;;;;;;;22.35;6.80;;;19.90;99.90;;;;;;5053926;28;20025;-68
2023/08/14 01:30:25;;;;;;;1066.90;24.83;;;19.80;99.90;;;;;;5053777;28;20023;-68
2023/08/14 01:32:51;;;;;;;8.35;6.50;;;19.70;99.90;;;;;;5053601;28;20416;-68
2023/08/14 01:35:19;;;;;;;539.72;13.95;;;19.60;99.90;;;;;;5053268;28;20078;-68
2023/08/14 01:38:18;;;;;;;205.95;8.57;;;19.70;99.90;;;;;;5053245;28;20074;-68
2023/08/14 01:40:46;;;;;;;8.00;5.90;;;19.70;99.90;;;;;;5053655;28;20146;-68
2023/08/14 01:43:20;;;;;;;10.25;7.25;;;19.70;99.90;;;;;;5053678;28;20021;-68
2023/08/14 01:45:46;;;;;;;11.23;6.32;;;19.70;99.90;;;;;;5053232;28;20450;-68
2023/08/14 01:48:14;;;;;;;9.18;6.20;;;19.70;99.90;;;;;;5053297;28;20078;-68
2023/08/14 01:50:41;;;;;;;8.63;6.30;;;19.70;99.90;;;;;;5053411;28;20065;-68
2023/08/14 01:53:07;;;;;;;9.90;6.43;;;19.70;99.90;;;;;;5053383;28;20025;-68
2023/08/14 01:55:33;;;;;;;7.10;6.03;;;19.70;99.90;;;;;;5052618;28;20017;-69
2023/08/14 01:57:58;;;;;;;310.95;11.20;;;19.70;99.90;;;;;;5052871;28;20457;-68
2023/08/14 02:00:24;;;;;;;440.58;10.75;;;19.70;99.90;;;;;;5053009;28;20028;-68
2023/08/14 02:02:50;;;;;;;415.45;10.85;;;19.60;99.90;;;;;;5054122;28;20036;-68
2023/08/14 02:05:15;;;;;;;29.88;4.07;;;19.50;99.90;;;;;;5056942;28;20057;-68
2023/08/14 02:07:41;;;;;;;10.25;4.95;;;19.50;99.90;;;;;;5056874;28;20077;-68
2023/08/14 02:10:07;;;;;;;22.60;5.32;;;19.50;99.90;;;;;;5057124;28;20017;-68
2023/08/14 02:12:33;;;;;;;7.25;5.35;;;19.50;99.90;;;;;;5056816;28;20029;-67
2023/08/14 02:14:59;;;;;;;6.90;4.68;;;19.50;99.90;;;;;;5056743;28;20334;-68
2023/08/14 02:17:27;;;;;;;8.98;5.18;;;19.50;99.90;;;;;;5056580;28;20036;-68
2023/08/14 02:19:53;;;;;;;9.63;5.00;;;19.50;99.90;;;;;;5057167;28;20033;-68
2023/08/14 02:22:19;;;;;;;8.20;4.95;;;19.60;99.90;;;;;;5056507;28;20408;-68
2023/08/14 02:24:44;;;;;;;9.07;6.03;;;19.60;99.90;;;;;;5056523;28;20017;-67
2023/08/14 02:27:10;;;;;;;9.45;6.30;;;19.60;99.90;;;;;;5056532;28;20071;-68
2023/08/14 02:29:36;;;;;;;12.48;5.88;;;19.60;99.90;;;;;;5056494;28;20033;-67
2023/08/14 02:32:01;;;;;;;11.15;8.38;;;19.40;99.90;;;;;;5056192;28;20476;-68
2023/08/14 02:34:32;;;;;;;12.57;8.93;;;19.30;99.90;;;;;;5057109;28;20032;-67
2023/08/14 02:36:58;;;;;;;14.63;9.80;;;19.40;99.90;;;;;;5056313;28;20389;-67
2023/08/14 02:39:24;;;;;;;16.33;9.55;;;19.50;99.90;;;;;;5056457;28;20260;-67
2023/08/14 02:41:49;;;;;;;15.10;10.05;;;19.50;99.90;;;;;;5056135;28;20028;-68
2023/08/14 02:44:15;;;;;;;21.17;11.40;;;19.50;99.90;;;;;;5056449;28;20052;-68
2023/08/14 02:46:40;;;;;;;24.77;12.13;;;19.60;99.90;;;;;;5056404;28;20475;-67
2023/08/14 02:49:06;;;;;;;20.40;11.77;;;19.70;99.90;;;;;;5056198;28;20444;-67
2023/08/14 02:51:32;;;;;;;20.98;11.27;;;19.80;99.90;;;;;;5056139;28;20036;-67
2023/08/14 02:53:57;;;;;;;16.48;11.38;;;20.00;99.90;;;;;;5056135;28;20108;-67
2023/08/14 02:56:23;;;;;;;21.88;11.43;;;20.00;99.90;;;;;;5055808;28;20095;-67
2023/08/14 02:58:49;;;;;;;17.52;11.25;;;20.00;99.90;;;;;;5056174;28;20027;-67
2023/08/14 03:01:14;;;;;;;18.08;11.20;;;19.90;99.90;;;;;;5055812;28;20033;-68
2023/08/14 03:03:40;;;;;;;17.55;10.18;;;19.90;99.90;;;;;;5055700;28;20337;-68
2023/08/14 03:06:05;;;;;;;20.15;9.38;;;19.90;99.90;;;;;;5055635;28;20029;-68
2023/08/14 03:08:31;;;;;;;15.45;8.95;;;19.90;99.90;;;;;;5055922;28;20049;-68
2023/08/14 03:10:56;;;;;;;12.60;7.88;;;19.80;99.90;;;;;;5055389;28;20060;-68
2023/08/14 03:13:22;;;;;;;11.80;7.78;;;19.80;99.90;;;;;;5055532;28;20127;-67
2023/08/14 03:15:48;;;;;;;14.43;8.70;;;19.80;99.90;;;;;;5054608;28;20063;-67
2023/08/14 03:18:13;;;;;;;13.10;7.65;;;19.80;99.90;;;;;;5055621;28;20023;-67
2023/08/14 03:20:39;;;;;;;14.27;7.35;;;19.80;99.90;;;;;;5055914;28;20037;-67
2023/08/14 03:23:05;;;;;;;15.82;7.38;;;19.80;99.90;;;;;;5055447;28;20025;-67
2023/08/14 03:25:30;;;;;;;16.25;7.30;;;19.80;99.90;;;;;;5055397;28;20021;-66
2023/08/14 03:27:56;;;;;;;13.40;7.40;;;19.80;99.90;;;;;;5055641;28;20021;-66
2023/08/14 03:30:21;;;;;;;17.65;7.35;;;19.70;99.90;;;;;;5055319;28;20402;-66
2023/08/14 03:32:47;;;;;;;14.35;6.88;;;19.70;99.90;;;;;;5055238;28;20102;-66
2023/08/14 03:35:13;;;;;;;11.20;7.22;;;19.70;99.90;;;;;;5055181;28;20472;-66
2023/08/14 03:37:38;;;;;;;12.07;6.97;;;19.70;99.90;;;;;;5054842;28;20017;-66
2023/08/14 03:40:05;;;;;;;11.65;7.00;;;19.70;99.90;;;;;;5055650;28;20053;-66
2023/08/14 03:42:30;;;;;;;15.60;6.75;;;19.70;99.90;;;;;;5055213;28;20041;-66
2023/08/14 03:44:56;;;;;;;18.60;6.40;;;19.70;99.90;;;;;;5053835;28;20108;-66
2023/08/14 03:47:21;;;;;;;16.33;7.63;;;19.60;99.90;;;;;;5055265;28;20024;-66
2023/08/14 03:49:47;;;;;;;11.88;7.40;;;19.50;99.90;;;;;;5055071;28;20044;-66
2023/08/14 03:52:13;;;;;;;15.18;8.25;;;19.50;99.90;;;;;;5055008;28;20032;-66
2023/08/14 03:54:38;;;;;;;18.15;6.95;;;19.50;99.90;;;;;;5054921;28;20017;-67
2023/08/14 03:57:04;;;;;;;9.82;6.60;;;19.60;99.90;;;;;;5054847;28;20017;-66
2023/08/14 03:59:29;;;;;;;12.45;7.05;;;19.50;99.90;;;;;;5054822;28;20432;-67
2023/08/14 04:01:55;;;;;;;12.15;7.70;;;19.50;99.90;;;;;;5054695;28;20040;-67
2023/08/14 04:04:20;;;;;;;15.82;7.82;;;19.50;99.90;;;;;;5054710;28;20020;-66
2023/08/14 04:06:47;;;;;;;13.30;7.68;;;19.50;99.90;;;;;;5054697;28;20027;-66
2023/08/14 04:09:13;;;;;;;11.93;7.63;;;19.50;99.90;;;;;;5054543;28;20025;-66
2023/08/14 04:11:39;;;;;;;12.05;8.00;;;19.50;99.90;;;;;;5054325;28;20032;-66
2023/08/14 04:14:05;;;;;;;13.38;7.88;;;19.50;99.90;;;;;;5055018;28;20112;-67
2023/08/14 04:16:43;;;;;;;12.63;8.02;;;19.50;99.90;;;;;;5054413;28;20111;-66
2023/08/14 04:19:18;;;;;;;384.88;16.13;;;19.50;99.90;;;;;;5054745;28;20025;-67
2023/08/14 04:21:44;;;;;;;11.75;7.10;;;19.50;99.90;;;;;;5054978;28;20033;-66
2023/08/14 04:24:10;;;;;;;17.00;8.13;;;19.40;99.90;;;;;;5054165;28;20480;-65
2023/08/14 04:26:38;;;;;;;15.15;8.27;;;19.50;99.90;;;;;;5054173;28;20017;-66
2023/08/14 04:29:08;;;;;;;14.00;8.70;;;19.50;99.90;;;;;;5052838;28;20049;-67
2023/08/14 04:31:38;;;;;;;13.80;8.02;;;19.40;99.90;;;;;;5054619;28;20358;-65
2023/08/14 04:34:05;;;;;;;14.38;8.25;;;19.40;99.90;;;;;;5054045;28;20063;-66
2023/08/14 04:36:32;;;;;;;11.40;7.80;;;19.40;99.90;;;;;;5053962;28;20017;-67
2023/08/14 04:38:58;;;;;;;12.07;7.88;;;19.40;99.90;;;;;;5054472;28;20437;-66
2023/08/14 04:41:25;;;;;;;13.63;7.53;;;19.40;99.90;;;;;;5054357;28;20036;-65
2023/08/14 04:43:51;;;;;;;12.90;8.02;;;19.40;99.90;;;;;;5054314;28;20029;-66
2023/08/14 04:46:36;;;;;;;15.00;8.30;;;19.40;99.90;;;;;;5053796;28;20092;-66
2023/08/14 04:49:03;;;;;;;15.70;8.77;;;19.40;99.90;;;;;;5053789;28;20041;-66
2023/08/14 04:51:30;;;;;;;12.70;6.82;;;19.40;99.90;;;;;;5054037;28;20479;-66
2023/08/14 04:53:58;;;;;;;13.45;6.80;;;19.50;99.90;;;;;;5053444;28;20096;-66
2023/08/14 04:56:23;;;;;;;9.48;6.53;;;19.50;99.90;;;;;;5054256;28;20441;-66
2023/08/14 04:58:50;;;;;;;9.88;5.88;;;19.50;99.90;;;;;;5053717;28;20057;-67
2023/08/14 05:01:15;;;;;;;9.73;5.20;;;19.50;99.90;;;;;;5053596;28;20035;-67
2023/08/14 05:03:41;;;;;;;8.80;5.85;;;19.50;99.90;;;;;;5053599;28;20486;-67
2023/08/14 05:06:07;;;;;;;8.95;6.18;;;19.50;99.90;;;;;;5053513;28;20025;-66
2023/08/14 05:08:32;;;;;;;11.90;5.82;;;19.50;99.90;;;;;;5052241;28;20095;-66
2023/08/14 05:10:58;;;;;;;9.45;5.75;;;19.50;99.90;;;;;;5053510;28;20032;-66
2023/08/14 05:13:24;;;;;;;10.60;5.78;;;19.50;99.90;;;;;;5053530;28;20357;-66
2023/08/14 05:15:50;;;;;;;9.55;5.35;;;19.50;99.90;;;;;;5053892;28;20088;-66
2023/08/14 05:18:16;;;;;;;8.27;5.00;;;19.50;99.90;;;;;;5053504;28;20359;-66
2023/08/14 05:20:46;;;;;;;7.40;5.38;;;19.50;99.90;;;;;;5052513;28;20025;-66
2023/08/14 05:23:12;;;;;;;6.68;4.72;;;19.50;99.90;;;;;;5053611;28;20025;-67
2023/08/14 05:25:38;;;;;;;14.70;4.80;;;19.50;99.90;;;;;;5053395;28;20021;-66
2023/08/14 05:28:05;;;;;;;10.93;4.70;;;19.40;99.90;;;;;;5053353;28;20087;-67
2023/08/14 05:30:31;;;;;;;7.10;4.70;;;19.40;99.90;;;;;;5053227;28;20024;-67
2023/08/14 05:32:57;;;;;;;9.02;4.55;;;19.40;99.90;;;;;;5053359;28;20084;-66
2023/08/14 05:35:25;;;;;;;10.20;4.78;;;19.50;99.90;;;;;;5053437;28;20021;-66
2023/08/14 05:37:52;;;;;;;6.97;4.63;;;19.50;99.90;;;;;;5054282;28;20039;-66
2023/08/14 05:40:21;;;;;;;11.63;5.32;;;19.50;99.90;;;;;;5057253;28;20475;-64
2023/08/14 05:43:08;;;;;;;7.13;5.20;;;19.50;99.90;;;;;;5057126;28;20033;-66
2023/08/14 05:45:36;;;;;;;9.27;5.88;;;19.50;99.90;;;;;;5057341;28;20445;-66
2023/08/14 05:48:03;;;;;;;10.55;5.13;;;19.50;99.90;;;;;;5056806;28;20029;-66
2023/08/14 05:50:29;;;;;;;6.10;4.65;;;19.60;99.90;;;;;;5057168;28;20436;-64
2023/08/14 05:52:56;;;;;;;6.75;4.75;;;19.70;99.90;;;;;;5057199;28;20029;-65
2023/08/14 05:55:22;;;;;;;10.68;5.10;;;19.70;99.90;;;;;;5056971;28;20025;-66
2023/08/14 05:57:48;;;;;;;12.00;5.10;;;19.80;99.90;;;;;;5057000;28;20025;-66
2023/08/14 06:00:14;;;;;;;8.52;5.07;;;20.00;99.90;;;;;;5056825;28;20302;-65
2023/08/14 06:02:40;;;;;;;7.15;4.80;;;20.10;99.90;;;;;;5057017;28;20039;-65
2023/08/14 06:05:08;;;;;;;11.07;4.70;;;20.20;99.90;;;;;;5057050;28;20021;-67
2023/08/14 06:07:34;;;;;;;10.45;4.70;;;20.30;99.90;;;;;;5056806;28;20098;-65
2023/08/14 06:09:59;;;;;;;7.00;4.03;;;20.30;99.90;;;;;;5057320;28;20122;-65
2023/08/14 06:12:25;;;;;;;9.05;4.07;;;20.30;99.90;;;;;;5057469;28;20430;-66
2023/08/14 06:14:50;;;;;;;8.15;4.03;;;20.40;99.90;;;;;;5056721;28;20103;-66
2023/08/14 06:17:16;;;;;;;8.90;3.60;;;20.40;99.90;;;;;;5056574;28;20017;-66
2023/08/14 06:19:42;;;;;;;9.10;4.07;;;20.60;99.90;;;;;;5056654;28;20430;-65
2023/08/14 06:22:07;;;;;;;15.32;4.30;;;20.80;99.90;;;;;;5056533;28;20028;-65
2023/08/14 06:24:33;;;;;;;7.03;3.85;;;21.00;99.90;;;;;;5056543;28;20021;-66
2023/08/14 06:26:58;;;;;;;5.93;3.75;;;21.00;99.90;;;;;;5056495;28;20408;-66
2023/08/14 06:29:24;;;;;;;12.05;3.78;;;21.00;99.90;;;;;;5056704;28;20032;-65
2023/08/14 06:31:50;;;;;;;12.63;3.92;;;20.90;99.90;;;;;;5056414;28;20039;-66
2023/08/14 06:34:16;;;;;;;7.35;4.15;;;20.90;99.90;;;;;;5057105;28;20044;-66
2023/08/14 06:36:42;;;;;;;8.15;4.63;;;20.90;99.90;;;;;;5056638;28;20029;-66
2023/08/14 06:39:07;;;;;;;6.45;4.22;;;21.00;99.90;;;;;;5056685;28;20043;-66
2023/08/14 06:41:33;;;;;;;5.88;4.20;;;21.00;99.90;;;;;;5055934;28;20033;-66
2023/08/14 06:43:58;;;;;;;8.98;4.05;;;21.10;99.90;;;;;;5056223;28;20116;-67
2023/08/14 06:46:24;;;;;;;6.68;4.28;;;21.20;99.90;;;;;;5056129;28;20098;-66
2023/08/14 06:48:50;;;;;;;9.38;5.25;;;21.20;99.90;;;;;;5055404;28;20049;-66
2023/08/14 06:51:15;;;;;;;9.23;5.32;;;21.30;99.90;;;;;;5055572;28;20082;-65
2023/08/14 06:53:41;;;;;;;9.75;5.50;;;21.40;99.90;;;;;;5056098;28;20075;-65
2023/08/14 06:56:07;;;;;;;7.97;5.63;;;21.40;99.90;;;;;;5055811;28;20052;-66
2023/08/14 06:58:32;;;;;;;10.07;4.50;;;21.60;99.90;;;;;;5055767;28;20021;-66
2023/08/14 07:00:58;;;;;;;5.25;3.78;;;21.80;99.90;;;;;;5056152;28;20041;-66
2023/08/14 07:03:24;;;;;;;4.15;2.78;;;22.10;99.90;;;;;;5055964;28;20029;-67
2023/08/14 07:05:50;;;;;;;5.55;2.70;;;22.30;99.90;;;;;;5055881;28;20036;-67
2023/08/14 07:08:15;;;;;;;12.32;2.88;;;22.40;99.90;;;;;;5055477;28;20032;-67
2023/08/14 07:10:41;;;;;;;6.32;2.83;;;22.30;99.90;;;;;;5055790;28;20029;-67
2023/08/14 07:13:07;;;;;;;7.22;3.08;;;22.30;99.90;;;;;;5055796;28;20104;-66
2023/08/14 07:15:33;;;;;;;5.18;2.70;;;22.40;99.90;;;;;;5055213;28;20021;-66
2023/08/14 07:17:59;;;;;;;5.97;2.67;;;22.60;99.90;;;;;;5056011;28;20024;-67
2023/08/14 07:20:26;;;;;;;4.43;2.83;;;22.80;99.90;;;;;;5055884;28;20029;-67
2023/08/14 07:22:52;;;;;;;12.20;3.25;;;23.00;99.90;;;;;;5055552;28;20060;-67
2023/08/14 07:25:18;;;;;;;13.63;4.63;;;23.30;99.90;;;;;;5055540;28;20021;-68
2023/08/14 07:27:44;;;;;;;5.82;2.85;;;23.50;99.90;;;;;;5055498;28;20021;-67
2023/08/14 07:30:10;;;;;;;7.43;2.80;;;23.60;99.90;;;;;;5055981;28;20051;-68
2023/08/14 07:32:35;;;;;;;4.55;3.13;;;23.70;99.90;;;;;;5055400;28;20037;-68
2023/08/14 07:35:02;;;;;;;9.68;3.42;;;23.80;99.90;;;;;;5055443;28;20025;-67
2023/08/14 07:37:28;;;;;;;4.68;3.00;;;23.80;99.90;;;;;;5056139;28;20056;-67
2023/08/14 07:39:54;;;;;;;4.97;2.88;;;23.80;99.90;;;;;;5055280;28;20025;-67
2023/08/14 07:42:19;;;;;;;5.63;2.50;;;24.00;99.90;;;;;;5055086;28;20043;-67
2023/08/14 07:44:45;;;;;;;5.53;2.45;;;24.00;99.90;;;;;;5055489;28;20024;-67
2023/08/14 07:47:11;;;;;;;8.43;2.20;;;24.10;99.90;;;;;;5055105;28;20029;-67
2023/08/14 07:49:36;;;;;;;6.40;2.22;;;24.30;99.90;;;;;;5054886;28;20037;-67
2023/08/14 07:52:02;;;;;;;3.97;2.30;;;24.40;99.90;;;;;;5055359;28;20461;-67
2023/08/14 07:54:28;;;;;;;5.30;2.42;;;24.50;99.90;;;;;;5054409;28;20048;-68
2023/08/14 07:56:53;;;;;;;3.85;2.30;;;24.50;99.90;;;;;;5054759;28;20064;-67
2023/08/14 07:59:19;;;;;;;4.35;2.22;;;24.60;99.90;;;;;;5054823;28;20028;-68
2023/08/14 08:01:45;;;;;;;4.13;2.53;;;24.70;99.90;;;;;;5054487;28;20087;-68
2023/08/14 08:04:11;;;;;;;5.50;2.40;;;24.70;99.90;;;;;;5054544;28;20055;-68
2023/08/14 08:06:37;;;;;;;4.03;2.70;;;24.90;99.90;;;;;;5055242;28;20025;-68
2023/08/14 08:09:03;;;;;;;6.40;2.78;;;24.90;99.90;;;;;;5054739;28;20397;-67
2023/08/14 08:11:29;;;;;;;5.35;2.33;;;24.90;99.90;;;;;;5054951;28;20040;-67
2023/08/14 08:13:55;;;;;;;4.47;2.60;;;25.10;99.90;;;;;;5054617;28;20028;-67
2023/08/14 08:16:21;;;;;;;4.07;2.20;;;25.20;99.90;;;;;;5054560;28;20013;-68
2023/08/14 08:18:47;;;;;;;4.63;2.63;;;25.30;99.90;;;;;;5054773;28;20078;-67
2023/08/14 08:21:12;;;;;;;3.20;2.70;;;25.40;99.90;;;;;;5054405;28;20029;-67
2023/08/14 08:23:38;;;;;;;3.60;2.42;;;25.60;99.90;;;;;;5054704;28;20461;-67
2023/08/14 08:26:04;;;;;;;3.42;2.53;;;25.60;99.90;;;;;;5054353;28;20032;-67
2023/08/14 08:28:29;;;;;;;3.28;2.30;;;25.70;99.90;;;;;;5054584;28;20028;-67
2023/08/14 08:30:55;;;;;;;8.50;3.33;;;25.80;99.90;;;;;;5054352;28;20017;-67
2023/08/14 08:33:21;;;;;;;5.22;2.58;;;25.80;99.90;;;;;;5054224;28;20074;-68
2023/08/14 08:35:46;;;;;;;5.53;2.83;;;26.00;99.90;;;;;;5054183;28;20025;-68
2023/08/14 08:38:12;;;;;;;2.95;2.55;;;26.00;99.90;;;;;;5054188;28;20075;-68
2023/08/14 08:40:41;;;;;;;5.20;2.90;;;25.90;99.90;;;;;;5054409;28;20068;-68
2023/08/14 08:43:08;;;;;;;7.88;3.20;;;25.90;99.90;;;;;;5054104;28;20016;-68
2023/08/14 08:45:36;;;;;;;4.95;2.72;;;26.00;99.90;;;;;;5054238;28;20020;-68
2023/08/14 08:48:05;;;;;;;4.45;3.08;;;26.20;99.90;;;;;;5054056;28;20047;-67
2023/08/14 08:50:31;;;;;;;3.93;2.93;;;26.10;99.90;;;;;;5054487;28;20029;-67
2023/08/14 08:52:57;;;;;;;5.97;3.20;;;26.10;99.90;;;;;;5053899;28;20021;-68
2023/08/14 08:55:23;;;;;;;6.93;2.90;;;26.10;99.90;;;;;;5054672;28;20025;-68
2023/08/14 08:57:51;;;;;;;5.00;2.88;;;26.00;99.90;;;;;;5053902;28;20343;-68
2023/08/14 09:00:16;;;;;;;6.05;3.13;;;26.10;99.90;;;;;;5054127;28;20025;-68
2023/08/14 09:02:42;;;;;;;5.72;3.05;;;26.30;99.90;;;;;;5053751;28;20029;-68
2023/08/14 09:05:08;;;;;;;9.55;3.35;;;26.50;99.90;;;;;;5053818;28;20020;-68
2023/08/14 09:07:34;;;;;;;4.22;2.90;;;26.70;99.90;;;;;;5053799;28;20028;-68
2023/08/14 09:10:00;;;;;;;5.97;3.00;;;26.80;99.90;;;;;;5053488;28;20017;-67
2023/08/14 09:12:26;;;;;;;3.85;2.78;;;26.90;99.90;;;;;;5053059;28;20519;-68
2023/08/14 09:15:06;;;;;;;7.63;3.10;;;27.10;99.90;;;;;;5053921;28;20017;-67
2023/08/14 09:17:33;;;;;;;5.35;3.00;;;27.30;99.90;;;;;;5053547;28;20458;-68
2023/08/14 09:19:58;;;;;;;3.58;2.72;;;27.40;99.90;;;;;;5053603;28;20021;-67
2023/08/14 09:22:27;;;;;;;5.32;3.03;;;27.50;99.90;;;;;;5053658;28;20032;-67
2023/08/14 09:24:54;;;;;;;4.28;3.00;;;27.60;99.90;;;;;;5053386;28;20025;-68
2023/08/14 09:27:21;;;;;;;5.32;2.70;;;27.80;99.90;;;;;;5053588;28;20017;-67
2023/08/14 09:29:47;;;;;;;3.55;2.92;;;27.90;99.90;;;;;;5053614;28;20025;-67
2023/08/14 09:32:12;;;;;;;4.85;2.85;;;28.00;99.90;;;;;;5053655;28;20025;-67
2023/08/14 09:34:38;;;;;;;3.85;2.85;;;28.00;99.90;;;;;;5053867;28;20017;-69
2023/08/14 09:37:04;;;;;;;6.90;2.90;;;28.20;99.90;;;;;;5053811;28;20049;-68
2023/08/14 09:39:30;;;;;;;3.72;2.90;;;28.30;99.90;;;;;;5053520;28;20035;-68
2023/08/14 09:41:56;;;;;;;6.95;3.10;;;28.20;99.90;;;;;;5053172;28;20116;-67
2023/08/14 09:44:23;;;;;;;10.05;2.60;;;28.20;99.90;;;;;;5053930;28;20127;-68
2023/08/14 09:46:51;;;;;;;5.40;2.85;;;27.80;99.90;;;;;;5053442;28;20021;-67
2023/08/14 09:49:18;;;;;;;6.20;2.95;;;27.80;99.90;;;;;;5053545;28;20041;-67
2023/08/14 09:51:53;;;;;;;7.43;3.03;;;27.90;99.90;;;;;;5054111;28;20033;-67
2023/08/14 09:54:19;;;;;;;4.35;2.78;;;28.00;99.90;;;;;;5054147;28;20342;-67
2023/08/14 09:56:46;;;;;;;3.90;3.10;;;28.20;99.90;;;;;;5053319;28;20027;-67
2023/08/14 09:59:11;;;;;;;6.13;3.00;;;28.50;99.90;;;;;;5051987;28;20025;-67
2023/08/14 10:01:38;;;;;;;5.40;3.50;;;28.70;99.90;;;;;;5053363;28;20040;-67
2023/08/14 10:04:05;;;;;;;4.35;3.13;;;28.80;99.90;;;;;;5053501;28;20461;-68
2023/08/14 10:06:32;;;;;;;6.90;3.50;;;29.10;99.90;;;;;;5053181;28;20029;-68
2023/08/14 10:08:57;;;;;;;6.10;3.25;;;29.10;99.90;;;;;;5053197;28;20013;-67
2023/08/14 10:11:28;;;;;;;5.00;3.15;;;29.30;99.90;;;;;;5053135;28;20024;-68
2023/08/14 10:14:01;;;;;;;6.25;3.40;;;29.50;99.90;;;;;;5053438;28;20067;-68
2023/08/14 10:16:40;;;;;;;7.97;3.72;;;29.70;99.90;;;;;;5053452;28;20043;-68
2023/08/14 10:19:12;;;;;;;6.63;4.03;;;29.60;99.90;;;;;;5053501;28;20437;-67
2023/08/14 10:21:40;;;;;;;5.05;3.33;;;29.50;99.90;;;;;;5053562;28;20049;-68
2023/08/14 10:24:07;;;;;;;6.30;3.67;;;29.50;99.90;;;;;;5054182;28;20457;-67
2023/08/14 10:26:33;;;;;;;8.02;4.15;;;29.60;99.90;;;;;;5056447;28;20032;-68
2023/08/14 10:28:59;;;;;;;6.93;3.83;;;29.60;99.90;;;;;;5056586;28;20028;-67
2023/08/14 10:31:27;;;;;;;4.97;3.97;;;29.70;99.90;;;;;;5057193;28;20021;-68
2023/08/14 10:33:55;;;;;;;6.28;4.32;;;29.40;99.90;;;;;;5056574;28;20028;-68
2023/08/14 10:36:22;;;;;;;6.93;4.47;;;29.30;99.90;;;;;;5056495;28;20373;-67
2023/08/14 10:38:49;;;;;;;7.00;4.30;;;29.20;99.90;;;;;;5057221;28;20025;-68
2023/08/14 10:41:17;;;;;;;6.50;4.30;;;29.40;99.90;;;;;;5056570;28;20033;-67
2023/08/14 10:43:49;;;;;;;5.90;4.65;;;29.70;99.90;;;;;;5056954;28;20400;-68
2023/08/14 10:46:15;;;;;;;13.80;4.63;;;30.00;99.90;;;;;;5056385;28;20017;-67
2023/08/14 10:48:47;;;;;;;11.90;4.63;;;30.20;99.90;;;;;;5056096;28;20133;-68
2023/08/14 10:51:16;;;;;;;6.35;4.38;;;30.40;99.90;;;;;;5056589;28;20029;-67
2023/08/14 10:53:42;;;;;;;8.52;4.90;;;30.50;99.90;;;;;;5056489;28;20026;-67
2023/08/14 10:56:10;;;;;;;6.50;4.63;;;30.50;99.90;;;;;;5056386;28;20476;-67
2023/08/14 10:58:36;;;;;;;5.70;4.60;;;30.10;99.90;;;;;;5056135;28;20032;-67
2023/08/14 11:01:07;;;;;;;10.45;4.65;;;29.90;99.90;;;;;;5055956;28;20029;-67
2023/08/14 11:03:34;;;;;;;8.10;4.65;;;29.90;99.90;;;;;;5055974;28;20503;-68
2023/08/14 11:06:00;;;;;;;7.32;4.88;;;30.00;99.90;;;;;;5055928;28;20017;-67
2023/08/14 11:08:29;;;;;;;5.80;4.90;;;30.30;99.90;;;;;;5055870;28;20028;-67
2023/08/14 11:10:56;;;;;;;5.75;4.38;;;30.60;99.90;;;;;;5056213;28;20024;-67
2023/08/14 11:13:22;;;;;;;9.90;4.53;;;30.70;99.90;;;;;;5055743;28;20048;-67
2023/08/14 11:15:48;;;;;;;7.28;4.80;;;31.00;99.90;;;;;;5055811;28;20033;-67
2023/08/14 11:18:15;;;;;;;6.15;4.70;;;31.10;99.90;;;;;;5056132;28;20473;-67
2023/08/14 11:20:42;;;;;;;6.97;4.95;;;31.20;99.90;;;;;;5055676;28;20033;-67
2023/08/14 11:23:08;;;;;;;5.68;4.47;;;31.30;99.90;;;;;;5056435;28;20060;-67
2023/08/14 11:25:35;;;;;;;7.38;5.13;;;31.10;99.90;;;;;;5055613;28;20035;-67
2023/08/14 11:28:01;;;;;;;6.70;4.80;;;31.10;99.90;;;;;;5055852;28;20400;-68
2023/08/14 11:30:33;;;;;;;10.50;5.00;;;31.20;99.90;;;;;;5055547;28;20021;-67
2023/08/14 11:33:01;;;;;;;7.32;4.70;;;31.20;99.90;;;;;;5055514;28;20029;-67
2023/08/14 11:35:28;;;;;;;6.10;5.07;;;31.40;99.90;;;;;;5054705;28;20454;-67
2023/08/14 11:37:55;;;;;;;7.95;4.60;;;31.60;99.90;;;;;;5055282;28;20017;-67
2023/08/14 11:40:20;;;;;;;7.15;4.88;;;31.80;99.90;;;;;;5054052;28;20067;-68
2023/08/14 11:42:46;;;;;;;7.43;4.93;;;32.00;99.90;;;;;;5055775;28;20025;-67
2023/08/14 11:45:12;;;;;;;9.07;4.50;;;31.80;99.90;;;;;;5055790;28;20434;-68
2023/08/14 11:47:40;;;;;;;9.75;4.90;;;31.50;99.90;;;;;;5055015;28;20033;-67
2023/08/14 11:50:07;;;;;;;6.80;5.18;;;31.50;99.90;;;;;;5055007;28;20053;-67
2023/08/14 11:52:34;;;;;;;7.65;4.90;;;31.50;99.90;;;;;;5055092;28;20488;-67
2023/08/14 11:55:01;;;;;;;7.15;4.90;;;31.50;99.90;;;;;;5054986;28;20091;-67
2023/08/14 11:57:29;;;;;;;6.93;5.00;;;31.80;99.90;;;;;;5054697;28;20369;-67
2023/08/14 11:59:56;;;;;;;7.82;4.90;;;32.10;99.90;;;;;;5054940;28;20017;-67
2023/08/14 12:02:22;;;;;;;10.27;4.88;;;32.20;99.90;;;;;;5054777;28;20064;-67
2023/08/14 12:04:53;;;;;;;9.23;4.90;;;32.20;99.90;;;;;;5055340;28;20052;-67
2023/08/14 12:07:19;;;;;;;10.25;5.15;;;31.80;99.90;;;;;;5055577;28;20094;-67
2023/08/14 12:09:45;;;;;;;7.97;4.72;;;31.60;99.90;;;;;;5055202;28;20025;-67
2023/08/14 12:12:12;;;;;;;11.98;5.15;;;31.60;99.90;;;;;;5054955;28;20136;-67
2023/08/14 12:14:42;;;;;;;9.85;5.13;;;31.80;99.90;;;;;;5054648;28;20025;-68
2023/08/14 12:17:10;;;;;;;6.82;4.60;;;32.20;99.90;;;;;;5055342;28;20107;-68
2023/08/14 12:19:37;;;;;;;6.13;4.38;;;32.30;99.90;;;;;;5054794;28;20031;-67
2023/08/14 12:22:03;;;;;;;8.75;4.80;;;32.40;99.90;;;;;;5054407;28;20036;-68
2023/08/14 12:24:58;;;;;;;6.82;4.55;;;32.60;99.90;;;;;;5054510;28;20025;-67
2023/08/14 12:27:26;;;;;;;5.82;4.30;;;32.40;99.90;;;;;;5049817;28;20025;-67
2023/08/14 12:29:53;;;;;;;11.48;5.03;;;32.60;99.90;;;;;;5054178;28;20024;-67
2023/08/14 12:32:20;;;;;;;6.40;5.03;;;32.40;99.90;;;;;;5054177;28;20051;-67
2023/08/14 12:34:46;;;;;;;6.28;4.70;;;32.60;99.90;;;;;;5054483;28;20032;-67
2023/08/14 12:37:14;;;;;;;6.90;5.00;;;32.60;99.90;;;;;;5054382;28;20017;-67
2023/08/14 12:39:40;;;;;;;7.47;4.82;;;32.40;99.90;;;;;;5054022;28;20503;-67
2023/08/14 12:42:06;;;;;;;8.18;4.95;;;32.40;99.90;;;;;;5054242;28;20029;-67